Terminal Aerodrome Forecast
Issued by NWS

Home | Current Version | Previous Version | Text Only | Print | Product List | Glossary On
Versions: 1 2 3 4 5 6 7 8 9 10 11 12 13 14 15 16
000
FTUS41 KPBZ 240520
TAFMGW
TAF
KMGW 240520Z 2406/2506 11005KT P6SM VCSH BKN060
     FM241200 12008KT P6SM VCSH SCT025 BKN035
      TEMPO 2412/2415 BKN025
     FM250000 13009KT 5SM -SHRA OVC025=

USA.gov is the U.S. government's official web portal to all federal, state and local government web resources and services.